createdAt,value
2019-03-19T00:03:12.525Z,9.65
2019-03-19T00:08:18.753Z,11.48
2019-03-19T00:13:24.853Z,9.48
2019-03-19T00:18:30.872Z,8.43
2019-03-19T00:23:37.260Z,7.45
2019-03-19T00:28:43.508Z,10.45
2019-03-19T00:33:49.770Z,6.72
2019-03-19T00:38:55.855Z,8.08
2019-03-19T00:44:01.904Z,5.80
2019-03-19T00:49:08.212Z,10.25
2019-03-19T00:54:14.564Z,9.05
2019-03-19T00:59:20.923Z,6.65
2019-03-19T01:04:26.997Z,6.90
2019-03-19T01:09:33.314Z,11.38
2019-03-19T01:14:39.485Z,9.00
2019-03-19T01:19:45.795Z,5.92
2019-03-19T01:24:53.005Z,8.05
2019-03-19T01:29:59.101Z,5.55
2019-03-19T01:35:07.089Z,4.05
2019-03-19T01:40:13.366Z,7.12
2019-03-19T01:45:19.589Z,4.50
2019-03-19T01:50:25.666Z,7.65
2019-03-19T01:55:31.493Z,5.22
2019-03-19T02:00:37.649Z,3.62
2019-03-19T02:05:43.934Z,6.03
2019-03-19T02:10:50.098Z,6.22
2019-03-19T02:15:56.262Z,3.12
2019-03-19T02:21:02.584Z,6.22
2019-03-19T02:26:16.584Z,4.28
2019-03-19T02:31:16.607Z,6.20
2019-03-19T02:36:22.776Z,7.05
2019-03-19T02:41:29.088Z,5.33
2019-03-19T02:46:35.366Z,6.00
2019-03-19T02:51:41.460Z,6.25
2019-03-19T02:56:47.422Z,6.83
2019-03-19T03:01:53.506Z,8.58
2019-03-19T03:06:59.663Z,9.75
2019-03-19T03:12:05.831Z,11.08
2019-03-19T03:17:12.240Z,9.25
2019-03-19T03:22:18.403Z,10.40
2019-03-19T03:27:24.881Z,7.25
2019-03-19T03:32:31.264Z,7.30
2019-03-19T03:37:37.587Z,7.37
2019-03-19T03:42:43.812Z,7.28
2019-03-19T03:47:49.973Z,9.38
2019-03-19T03:52:56.275Z,6.55
2019-03-19T03:58:02.485Z,8.25
2019-03-19T04:03:08.919Z,10.90
2019-03-19T04:08:15.377Z,6.42
2019-03-19T04:13:21.321Z,9.68
2019-03-19T04:18:27.523Z,7.95
2019-03-19T04:23:33.924Z,6.47
2019-03-19T04:28:40.131Z,7.67
2019-03-19T04:33:46.271Z,6.85
2019-03-19T04:38:52.120Z,7.15
2019-03-19T04:43:58.313Z,5.35
2019-03-19T04:49:04.788Z,7.28
2019-03-19T04:54:10.812Z,6.10
2019-03-19T04:59:16.980Z,5.15
2019-03-19T05:04:23.247Z,5.65
2019-03-19T05:09:29.448Z,4.12
2019-03-19T05:14:35.510Z,6.42
2019-03-19T05:19:41.849Z,17.32
2019-03-19T05:24:47.863Z,5.30
2019-03-19T05:29:54.067Z,4.03
2019-03-19T05:35:00.420Z,11.57
2019-03-19T05:40:07.330Z,5.55
2019-03-19T05:45:13.784Z,4.58
2019-03-19T05:50:20.043Z,3.37
2019-03-19T05:55:26.102Z,5.75
2019-03-19T06:00:33.015Z,4.08
2019-03-19T06:05:39.320Z,5.15
2019-03-19T06:10:45.375Z,13.10
2019-03-19T06:15:51.662Z,35.80
2019-03-19T06:20:57.953Z,23.87
2019-03-19T06:26:04.240Z,83.58
2019-03-19T06:31:10.357Z,37.63
2019-03-19T06:36:16.605Z,18.67
2019-03-19T06:41:22.869Z,19.87
2019-03-19T06:46:29.061Z,35.65
2019-03-19T06:51:35.384Z,71.45
2019-03-19T06:56:41.700Z,35.63
2019-03-19T07:01:47.757Z,37.75
2019-03-19T07:06:53.933Z,31.40
2019-03-19T07:12:01.572Z,30.45
2019-03-19T07:17:08.059Z,31.05
2019-03-19T07:22:14.115Z,30.25
2019-03-19T07:27:20.320Z,27.25
2019-03-19T07:32:26.731Z,34.63
2019-03-19T07:37:32.964Z,23.25
2019-03-19T07:42:39.516Z,9.43
2019-03-19T07:47:45.904Z,11.33
2019-03-19T07:52:52.075Z,10.13
2019-03-19T07:57:58.488Z,11.63
2019-03-19T08:03:15.348Z,8.13
2019-03-19T08:08:12.620Z,11.08
2019-03-19T08:13:19.179Z,15.98
2019-03-19T08:18:25.620Z,15.18
2019-03-19T08:23:32.115Z,13.30
2019-03-19T08:28:38.424Z,17.62
2019-03-19T08:33:44.630Z,14.20
2019-03-19T08:38:51.297Z,16.27
2019-03-19T08:43:57.240Z,15.72
2019-03-19T08:49:03.464Z,16.93
2019-03-19T08:54:09.685Z,19.20
2019-03-19T08:59:15.815Z,16.70
2019-03-19T09:04:21.797Z,17.32
2019-03-19T09:09:28.105Z,15.00
2019-03-19T09:14:34.276Z,12.55
2019-03-19T09:19:40.595Z,13.68
2019-03-19T09:24:46.836Z,12.57
2019-03-19T09:29:53.194Z,7.95
2019-03-19T09:34:59.553Z,10.85
2019-03-19T09:40:06.837Z,8.98
2019-03-19T09:45:13.589Z,6.00
2019-03-19T09:50:20.203Z,7.00
2019-03-19T09:55:26.688Z,8.65
2019-03-19T10:00:32.911Z,9.00
2019-03-19T10:05:39.054Z,6.00
2019-03-19T10:10:45.133Z,7.95
2019-03-19T10:15:51.510Z,5.47
2019-03-19T10:20:57.664Z,5.25
2019-03-19T10:26:04.025Z,6.58
2019-03-19T10:31:10.310Z,5.40
2019-03-19T10:36:16.459Z,7.35
2019-03-19T10:41:22.741Z,5.87
2019-03-19T10:46:28.909Z,7.35
2019-03-19T10:51:35.371Z,5.17
2019-03-19T10:56:41.593Z,12.15
2019-03-19T11:01:47.766Z,4.05
2019-03-19T11:06:53.973Z,7.35
2019-03-19T11:12:00.239Z,4.03
2019-03-19T11:17:06.541Z,5.87
2019-03-19T11:22:13.079Z,7.22
2019-03-19T11:27:19.233Z,4.87
2019-03-19T11:32:25.584Z,5.95
2019-03-19T11:37:31.854Z,3.55
2019-03-19T11:42:38.256Z,4.05
2019-03-19T11:47:44.471Z,3.12
2019-03-19T11:52:50.581Z,2.87
2019-03-19T11:57:57.713Z,5.17
2019-03-19T12:03:14.753Z,4.80
2019-03-19T12:08:12.064Z,3.83
2019-03-19T12:13:18.551Z,5.40
2019-03-19T12:18:24.839Z,3.37
2019-03-19T12:23:31.070Z,2.60
2019-03-19T12:28:39.897Z,2.67
2019-03-19T12:33:45.594Z,4.03
2019-03-19T12:38:51.715Z,3.08
2019-03-19T12:43:57.949Z,5.03
2019-03-19T12:49:04.566Z,3.40
2019-03-19T12:54:10.837Z,4.85
2019-03-19T12:59:20.573Z,3.80
2019-03-19T13:04:24.814Z,5.20
2019-03-19T13:09:31.019Z,2.17
2019-03-19T13:14:37.403Z,2.60
2019-03-19T13:19:43.765Z,2.85
2019-03-19T13:24:49.741Z,6.08
2019-03-19T13:29:55.795Z,4.87
2019-03-19T13:35:01.763Z,7.12
2019-03-19T13:40:08.077Z,5.03
2019-03-19T13:45:14.946Z,12.65
2019-03-19T13:50:21.233Z,5.10
2019-03-19T13:55:28.390Z,3.55
2019-03-19T14:00:35.400Z,4.33
2019-03-19T14:05:41.490Z,3.75
2019-03-19T14:10:47.440Z,7.05
2019-03-19T14:15:53.942Z,6.30
2019-03-19T14:21:00.541Z,6.08
2019-03-19T14:26:06.992Z,6.30
2019-03-19T14:31:13.274Z,5.85
2019-03-19T14:36:19.481Z,8.30
2019-03-19T14:41:34.214Z,6.72
2019-03-19T14:46:40.350Z,4.92
2019-03-19T14:51:46.294Z,3.60
2019-03-19T14:56:52.349Z,6.40
2019-03-19T15:01:58.452Z,3.52
2019-03-19T15:07:21.813Z,4.80
2019-03-19T15:12:45.704Z,3.55
2019-03-19T15:17:51.997Z,5.08
2019-03-19T15:22:58.322Z,7.62
2019-03-19T15:28:04.874Z,5.58
2019-03-19T15:33:29.842Z,7.67
2019-03-19T15:38:35.950Z,4.17
2019-03-19T15:43:42.255Z,8.60
2019-03-19T15:48:48.535Z,5.12
2019-03-19T15:53:55.398Z,10.45
2019-03-19T15:59:01.671Z,8.68
2019-03-19T16:04:07.963Z,5.87
2019-03-19T16:09:14.249Z,5.22
2019-03-19T16:14:20.524Z,6.30
2019-03-19T16:19:26.577Z,7.08
2019-03-19T16:24:32.883Z,4.75
2019-03-19T16:29:39.137Z,10.40
2019-03-19T16:34:45.394Z,5.55
2019-03-19T16:39:51.473Z,7.80
2019-03-19T16:44:57.619Z,6.25
2019-03-19T16:50:03.737Z,4.33
2019-03-19T16:55:10.549Z,6.25
2019-03-19T17:00:20.780Z,5.45
2019-03-19T17:05:27.161Z,10.35
2019-03-19T17:10:33.357Z,4.33
2019-03-19T17:15:39.802Z,5.20
2019-03-19T17:20:45.793Z,5.30
2019-03-19T17:25:51.952Z,4.75
2019-03-19T17:30:58.173Z,5.60
2019-03-19T17:36:04.579Z,10.85
2019-03-19T17:41:10.842Z,7.37
2019-03-19T17:46:17.113Z,9.15
2019-03-19T17:51:23.243Z,6.95
2019-03-19T17:56:29.382Z,6.60
2019-03-19T18:01:36.077Z,7.12
2019-03-19T18:06:43.194Z,6.30
2019-03-19T18:11:49.661Z,8.78
2019-03-19T18:16:55.689Z,8.53
2019-03-19T18:22:01.798Z,9.65
2019-03-19T18:27:08.225Z,11.95
2019-03-19T18:37:26.720Z,8.50
2019-03-19T18:42:33.285Z,18.00
2019-03-19T18:47:39.741Z,21.77
2019-03-19T18:52:45.772Z,15.32
2019-03-19T18:57:51.848Z,13.28
2019-03-19T19:02:58.190Z,6.67
2019-03-19T19:08:04.544Z,11.57
2019-03-19T19:13:10.813Z,10.32
2019-03-19T19:18:17.222Z,7.83
2019-03-19T19:23:23.456Z,7.37
2019-03-19T19:28:30.120Z,6.15
2019-03-19T19:33:36.407Z,8.45
2019-03-19T19:38:43.557Z,11.05
2019-03-19T19:43:49.822Z,13.05
2019-03-19T19:48:56.319Z,14.13
2019-03-19T19:54:03.215Z,39.25
2019-03-19T19:59:09.423Z,11.10
2019-03-19T20:04:15.777Z,7.22
2019-03-19T20:09:21.901Z,9.80
2019-03-19T20:14:28.106Z,7.25
2019-03-19T20:19:34.279Z,6.45
2019-03-19T20:24:40.653Z,7.83
2019-03-19T20:29:47.024Z,9.40
2019-03-19T20:34:53.216Z,6.20
2019-03-19T20:39:59.439Z,6.85
2019-03-19T20:45:06.122Z,10.00
2019-03-19T20:50:14.963Z,7.17
2019-03-19T20:55:21.093Z,9.28
2019-03-19T21:00:27.460Z,8.35
2019-03-19T21:05:33.611Z,9.83
2019-03-19T21:10:39.792Z,10.60
2019-03-19T21:15:46.490Z,10.82
2019-03-19T21:20:52.808Z,10.20
2019-03-19T21:25:59.215Z,9.60
2019-03-19T21:31:05.604Z,10.45
2019-03-19T21:36:11.852Z,8.18
2019-03-19T21:41:18.518Z,9.90
2019-03-19T21:46:24.776Z,10.70
2019-03-19T21:51:31.142Z,8.20
2019-03-19T21:56:37.359Z,7.75
2019-03-19T22:01:43.604Z,10.98
2019-03-19T22:06:49.889Z,10.40
2019-03-19T22:11:55.991Z,8.80
2019-03-19T22:17:02.308Z,7.72
2019-03-19T22:22:08.760Z,6.53
2019-03-19T22:27:15.002Z,8.33
2019-03-19T22:32:21.058Z,8.70
2019-03-19T22:37:27.366Z,7.75
2019-03-19T22:42:33.887Z,10.35
2019-03-19T22:47:40.185Z,9.93
2019-03-19T22:52:46.807Z,7.37
2019-03-19T22:57:52.948Z,9.50
2019-03-19T23:02:59.336Z,7.60
2019-03-19T23:08:05.817Z,12.55
2019-03-19T23:13:12.185Z,14.93
2019-03-19T23:18:18.331Z,29.40
2019-03-19T23:23:24.479Z,18.20
2019-03-19T23:28:31.105Z,12.55
2019-03-19T23:33:37.284Z,11.43
2019-03-19T23:38:43.411Z,6.53
2019-03-19T23:43:49.697Z,6.83
2019-03-19T23:48:55.997Z,8.55
2019-03-19T23:54:02.417Z,6.95
2019-03-19T23:59:08.677Z,11.53
